Time;durP1;ratioP1;P1;durP2;ratioP2;P2;SDS_P1;SDS_P2;PMS_P1;PMS_P2;Temp;Humidity;BMP_temperature;BMP_pressure;BME280_temperature;BME280_humidity;BME280_pressure;Samples;Min_cycle;Max_cycle;Signal;HPM_P1;HPM_P2
2023/09/17 19:47:26;;;;;;;25.70;23.02;;;18.30;99.90;;;;;;6281025;22;20065;-95
2023/09/17 19:49:52;;;;;;;26.27;23.73;;;18.30;99.90;;;;;;6254384;22;20012;-95
2023/09/17 19:52:18;;;;;;;26.90;24.35;;;;;;;;;;6279957;22;20052;-93
2023/09/17 19:54:44;;;;;;;27.30;24.70;;;18.70;99.90;;;;;;6256261;22;20015;-94
2023/09/17 19:57:13;;;;;;;28.60;25.83;;;18.40;99.90;;;;;;6283064;22;20341;-94
2023/09/17 19:59:39;;;;;;;29.35;26.35;;;18.50;99.90;;;;;;6292557;22;19999;-93
2023/09/17 20:02:05;;;;;;;28.80;26.00;;;18.50;99.90;;;;;;6270617;22;20015;-93
2023/09/17 20:04:31;;;;;;;28.98;25.95;;;18.30;99.90;;;;;;6280708;22;20039;-93
2023/09/17 20:06:59;;;;;;;27.63;25.05;;;18.60;99.90;;;;;;6280874;22;20015;-93
2023/09/17 20:09:25;;;;;;;29.08;26.08;;;18.20;99.90;;;;;;6253836;22;20014;-92
2023/09/17 20:11:51;;;;;;;27.65;24.80;;;18.20;99.90;;;;;;6280940;22;20431;-95
2023/09/17 20:14:17;;;;;;;29.70;26.70;;;18.20;99.90;;;;;;6280169;22;20015;-96
2023/09/17 20:16:42;;;;;;;31.50;28.40;;;18.10;99.90;;;;;;6255616;22;20086;-94
2023/09/17 20:19:08;;;;;;;29.52;26.58;;;18.10;99.90;;;;;;6255486;22;20491;-95
2023/09/17 20:21:33;;;;;;;27.70;24.90;;;18.00;99.90;;;;;;6255883;22;20034;-95
2023/09/17 20:23:59;;;;;;;29.77;26.77;;;18.10;99.90;;;;;;6281003;22;20096;-95
2023/09/17 20:26:26;;;;;;;26.13;23.52;;;18.00;99.90;;;;;;6280979;22;20344;-95
2023/09/17 20:28:52;;;;;;;26.48;23.88;;;18.00;99.90;;;;;;6255516;22;20086;-95
2023/09/17 20:31:17;;;;;;;25.52;23.20;;;18.00;99.90;;;;;;6282190;22;20027;-95
2023/09/17 20:33:44;;;;;;;26.20;23.75;;;18.00;99.90;;;;;;6257788;22;20008;-96
2023/09/17 20:36:10;;;;;;;25.67;23.17;;;18.50;99.90;;;;;;6271096;22;20014;-95
2023/09/17 20:38:36;;;;;;;23.55;21.27;;;17.90;99.90;;;;;;6304097;22;20059;-95
2023/09/17 20:41:02;;;;;;;24.25;21.95;;;17.90;99.90;;;;;;6303586;22;20026;-96
2023/09/17 20:43:28;;;;;;;23.33;21.13;;;17.80;99.90;;;;;;6272764;22;20017;-95
2023/09/17 20:45:53;;;;;;;24.85;21.92;;;18.00;99.90;;;;;;6258422;22;20441;-95
2023/09/17 20:48:19;;;;;;;22.75;20.67;;;18.10;99.90;;;;;;6262163;22;20026;-96
2023/09/17 20:50:45;;;;;;;22.75;20.55;;;18.10;99.90;;;;;;6270856;22;20011;-95
2023/09/17 20:53:10;;;;;;;21.45;19.55;;;18.10;99.90;;;;;;6265277;22;20007;-96
2023/09/17 20:55:36;;;;;;;23.80;21.52;;;17.70;99.90;;;;;;6266220;22;20378;-96
2023/09/17 20:58:01;;;;;;;20.80;18.85;;;17.90;99.90;;;;;;6264678;22;20085;-95
2023/09/17 21:00:27;;;;;;;18.08;16.38;;;17.80;99.90;;;;;;6303929;22;20019;-95
2023/09/17 21:02:53;;;;;;;19.95;18.02;;;18.10;99.90;;;;;;6305279;22;20003;-95
2023/09/17 21:05:19;;;;;;;22.00;20.00;;;17.60;99.90;;;;;;6279313;22;20015;-96
2023/09/17 21:07:45;;;;;;;19.50;17.75;;;17.70;99.90;;;;;;6262443;22;20007;-95
2023/09/17 21:10:11;;;;;;;19.00;17.33;;;17.60;99.90;;;;;;6284325;22;20012;-95
2023/09/17 21:12:37;;;;;;;19.92;18.05;;;17.50;99.90;;;;;;6258563;22;20241;-96
2023/09/17 21:15:05;;;;;;;20.88;18.98;;;17.60;99.90;;;;;;6283650;22;20014;-96
2023/09/17 21:17:30;;;;;;;21.33;19.23;;;17.40;99.90;;;;;;6260071;22;20072;-95
2023/09/17 21:19:56;;;;;;;19.90;18.00;;;17.50;99.90;;;;;;6259651;22;20019;-96
2023/09/17 21:22:22;;;;;;;20.65;18.67;;;17.50;99.90;;;;;;6267243;22;20078;-95
2023/09/17 21:24:48;;;;;;;21.65;19.65;;;17.50;99.90;;;;;;6273684;22;20019;-94
2023/09/17 21:27:14;;;;;;;21.42;19.42;;;17.50;99.90;;;;;;6263671;22;20333;-95
2023/09/17 21:29:40;;;;;;;20.80;18.90;;;17.50;99.90;;;;;;6258845;22;20451;-94
2023/09/17 21:32:06;;;;;;;18.92;17.33;;;;;;;;;;6257737;22;20090;-95
2023/09/17 21:34:31;;;;;;;20.05;18.05;;;17.60;99.90;;;;;;6283179;22;20095;-95
2023/09/17 21:36:57;;;;;;;17.27;15.68;;;17.60;99.90;;;;;;6283164;22;20019;-95
2023/09/17 21:39:27;;;;;;;18.30;16.60;;;17.30;99.90;;;;;;6257552;22;20015;-96
2023/09/17 21:41:55;;;;;;;19.00;17.33;;;17.60;99.90;;;;;;6257047;22;20040;-95
2023/09/17 21:44:20;;;;;;;;;;;17.30;99.90;;;;;;6275378;22;20023;-96
2023/09/17 21:46:46;;;;;;;22.52;20.23;;;17.40;99.90;;;;;;6280122;22;19951;-96
2023/09/17 21:49:12;;;;;;;25.95;23.42;;;17.50;99.90;;;;;;6306474;22;20019;-95
2023/09/17 21:51:37;;;;;;;25.60;23.17;;;17.30;99.90;;;;;;6297405;22;20403;-95
2023/09/17 21:54:03;;;;;;;27.25;24.58;;;17.50;99.90;;;;;;6260548;22;20011;-94
2023/09/17 21:56:29;;;;;;;25.83;22.83;;;17.70;99.90;;;;;;6257554;22;20132;-94
2023/09/17 21:58:54;;;;;;;24.88;22.48;;;18.10;99.90;;;;;;6262072;22;20070;-93
2023/09/17 22:01:20;;;;;;;26.95;24.23;;;17.60;99.90;;;;;;6256781;22;20013;-93
2023/09/17 22:03:46;;;;;;;22.63;20.52;;;17.60;99.90;;;;;;6286433;22;20376;-89
2023/09/17 22:06:11;;;;;;;24.05;21.67;;;17.50;99.90;;;;;;6265963;22;20073;-91
2023/09/17 22:08:37;;;;;;;22.95;20.70;;;17.50;99.90;;;;;;6265363;22;20022;-90
2023/09/17 22:11:06;;;;;;;22.63;20.52;;;17.50;99.90;;;;;;6286084;22;20018;-90
2023/09/17 22:13:33;;;;;;;20.92;18.95;;;17.50;99.90;;;;;;6280045;22;20022;-96
2023/09/17 22:15:59;;;;;;;21.13;19.08;;;17.40;99.90;;;;;;6256418;22;20007;-96
2023/09/17 22:18:27;;;;;;;21.65;19.65;;;17.40;99.90;;;;;;6257534;22;20497;-96
2023/09/17 22:21:04;;;;;;;23.13;20.83;;;17.50;99.90;;;;;;6257104;22;20015;-95
2023/09/17 22:23:29;;;;;;;26.35;23.85;;;17.50;99.90;;;;;;6263251;22;20015;-93
2023/09/17 22:25:55;;;;;;;26.02;23.55;;;17.60;99.90;;;;;;6292568;22;20010;-93
2023/09/17 22:28:20;;;;;;;23.85;21.50;;;17.50;99.90;;;;;;6282671;22;20038;-94
2023/09/17 22:30:46;;;;;;;21.63;19.58;;;17.50;99.90;;;;;;6280566;22;20090;-94
2023/09/17 22:33:12;;;;;;;22.10;19.80;;;17.40;99.90;;;;;;6279265;22;20015;-95
2023/09/17 22:35:37;;;;;;;19.63;17.92;;;17.40;99.90;;;;;;6254742;22;20042;-93
2023/09/17 22:38:03;;;;;;;20.10;18.33;;;17.40;99.90;;;;;;6286737;22;20011;-92
2023/09/17 22:40:29;;;;;;;20.92;18.80;;;17.40;99.90;;;;;;6252768;22;20015;-93
2023/09/17 22:42:55;;;;;;;22.10;20.00;;;17.30;99.90;;;;;;6258117;22;20008;-94
2023/09/17 22:45:20;;;;;;;19.55;17.77;;;17.40;99.90;;;;;;6238284;23;20109;-94
2023/09/17 22:47:46;;;;;;;19.60;17.55;;;17.30;99.90;;;;;;6216355;23;20023;-93
2023/09/17 22:50:12;;;;;;;19.45;17.60;;;17.30;99.90;;;;;;6240314;23;20012;-94
2023/09/17 22:52:37;;;;;;;19.58;17.83;;;17.40;99.90;;;;;;6211492;23;20971;-93
2023/09/17 22:55:03;;;;;;;22.35;20.25;;;17.30;99.90;;;;;;6238306;23;20052;-94
2023/09/17 22:57:29;;;;;;;23.85;21.40;;;17.40;99.90;;;;;;6240331;23;20043;-93
2023/09/17 22:59:55;;;;;;;22.45;20.42;;;17.40;99.90;;;;;;6237944;23;20067;-93
2023/09/17 23:02:20;;;;;;;21.23;19.45;;;17.50;99.90;;;;;;6239399;23;20043;-93
2023/09/17 23:04:46;;;;;;;22.45;20.52;;;17.40;99.90;;;;;;6239924;23;20341;-93
2023/09/17 23:07:11;;;;;;;22.25;20.25;;;17.30;99.90;;;;;;6214862;23;20090;-93
2023/09/17 23:09:37;;;;;;;23.42;21.27;;;17.40;99.90;;;;;;6239057;23;20038;-93
2023/09/17 23:12:03;;;;;;;20.52;18.75;;;17.40;99.90;;;;;;6241443;23;20051;-95
2023/09/17 23:14:29;;;;;;;20.35;18.40;;;17.40;99.90;;;;;;6216140;23;20016;-93
2023/09/17 23:16:54;;;;;;;20.40;18.38;;;17.30;99.90;;;;;;6217896;23;20027;-92
2023/09/17 23:21:54;;;;;;;22.73;20.38;;;17.20;99.90;;;;;;6337589;22;20022;-93
2023/09/17 23:24:19;;;;;;;22.67;20.45;;;17.30;99.90;;;;;;6309484;22;20079;-92
2023/09/17 23:26:45;;;;;;;22.23;20.05;;;17.30;99.90;;;;;;6283175;22;20011;-92
2023/09/17 23:29:10;;;;;;;20.55;18.50;;;17.20;99.90;;;;;;6282484;22;20018;-95
2023/09/17 23:31:38;;;;;;;23.17;20.80;;;17.20;99.90;;;;;;6283609;22;20521;-94
2023/09/17 23:34:05;;;;;;;21.75;19.80;;;17.20;99.90;;;;;;6282594;22;20766;-93
2023/09/17 23:36:31;;;;;;;22.23;20.00;;;17.20;99.90;;;;;;6294300;22;20017;-96
2023/09/17 23:39:00;;;;;;;22.45;20.27;;;17.20;99.90;;;;;;6280943;22;20018;-92
2023/09/17 23:41:26;;;;;;;22.05;19.77;;;17.20;99.90;;;;;;6280258;22;20022;-94
2023/09/17 23:43:52;;;;;;;21.98;19.88;;;17.10;99.90;;;;;;6308140;22;20022;-95
2023/09/17 23:46:18;;;;;;;23.48;21.05;;;17.10;99.90;;;;;;6308092;22;20201;-94
2023/09/17 23:48:44;;;;;;;22.08;19.77;;;17.10;99.90;;;;;;6281045;22;20018;-95
2023/09/17 23:51:10;;;;;;;19.15;17.45;;;17.00;99.90;;;;;;6281674;22;20026;-95
2023/09/17 23:53:36;;;;;;;20.42;18.45;;;17.00;99.90;;;;;;6306341;22;20022;-95
2023/09/17 23:56:01;;;;;;;21.95;19.73;;;17.00;99.90;;;;;;6280590;22;20466;-92
2023/09/17 23:58:27;;;;;;;21.45;19.40;;;16.90;99.90;;;;;;6280595;22;20790;-93
